createdAt,value
2018-12-26T00:00:02.205Z,80.34
2018-12-26T00:02:30.670Z,80.40
2018-12-26T00:04:59.119Z,80.32
2018-12-26T00:07:27.535Z,80.20
2018-12-26T00:09:55.983Z,80.37
2018-12-26T00:12:24.404Z,80.39
2018-12-26T00:14:52.859Z,80.45
2018-12-26T00:17:21.356Z,80.57
2018-12-26T00:19:49.816Z,80.58
2018-12-26T00:22:18.295Z,80.66
2018-12-26T00:24:46.790Z,80.64
2018-12-26T00:27:15.225Z,80.64
2018-12-26T00:29:43.695Z,80.67
2018-12-26T00:32:12.100Z,80.74
2018-12-26T00:34:40.549Z,80.65
2018-12-26T00:37:08.963Z,80.63
2018-12-26T00:39:37.492Z,80.63
2018-12-26T00:42:06.040Z,80.62
2018-12-26T00:44:34.520Z,80.72
2018-12-26T00:47:02.953Z,80.75
2018-12-26T00:49:31.363Z,80.82
2018-12-26T00:51:59.809Z,80.87
2018-12-26T00:54:28.237Z,80.89
2018-12-26T00:56:56.702Z,80.85
2018-12-26T00:59:25.111Z,80.99
2018-12-26T01:01:53.552Z,81.16
2018-12-26T01:04:22.049Z,81.17
2018-12-26T01:06:50.570Z,81.18
2018-12-26T01:09:19.140Z,81.23
2018-12-26T01:11:47.630Z,81.35
2018-12-26T01:14:16.130Z,81.26
2018-12-26T01:16:44.576Z,81.29
2018-12-26T01:19:12.997Z,81.42
2018-12-26T01:21:41.471Z,81.61
2018-12-26T01:24:09.899Z,81.69
2018-12-26T01:26:38.353Z,81.73
2018-12-26T01:29:06.767Z,81.54
2018-12-26T01:31:35.225Z,81.58
2018-12-26T01:34:03.696Z,81.57
2018-12-26T01:36:32.138Z,81.46
2018-12-26T01:39:00.629Z,81.54
2018-12-26T01:41:29.058Z,81.59
2018-12-26T01:43:57.507Z,81.60
2018-12-26T01:46:25.926Z,81.51
2018-12-26T01:48:54.387Z,81.53
2018-12-26T01:51:22.802Z,81.59
2018-12-26T01:53:51.290Z,81.77
2018-12-26T01:56:27.675Z,81.87
2018-12-26T01:58:49.912Z,81.78
2018-12-26T02:01:18.395Z,81.77
2018-12-26T02:03:46.979Z,81.80
2018-12-26T02:06:15.499Z,81.75
2018-12-26T02:08:44.027Z,81.83
2018-12-26T02:11:12.450Z,81.89
2018-12-26T02:13:40.981Z,81.89
2018-12-26T02:16:09.456Z,81.96
2018-12-26T02:18:37.946Z,81.98
2018-12-26T02:21:06.627Z,82.07
2018-12-26T02:23:35.081Z,82.18
2018-12-26T02:26:03.505Z,82.14
2018-12-26T02:28:31.939Z,82.07
2018-12-26T02:31:00.392Z,82.01
2018-12-26T02:33:28.823Z,82.11
2018-12-26T02:35:57.371Z,82.00
2018-12-26T02:38:25.860Z,82.09
2018-12-26T02:40:54.469Z,82.06
2018-12-26T02:43:22.967Z,82.13
2018-12-26T02:45:51.412Z,82.05
2018-12-26T02:48:19.830Z,82.17
2018-12-26T02:50:48.464Z,82.26
2018-12-26T02:53:16.968Z,82.27
2018-12-26T02:55:45.406Z,82.37
2018-12-26T02:58:13.815Z,82.34
2018-12-26T03:00:42.377Z,82.17
2018-12-26T03:03:12.464Z,82.06
2018-12-26T03:05:40.895Z,82.16
2018-12-26T03:08:09.357Z,82.26
2018-12-26T03:10:37.889Z,82.29
2018-12-26T03:13:06.494Z,82.25
2018-12-26T03:15:34.984Z,82.17
2018-12-26T03:18:03.497Z,82.28
2018-12-26T03:20:31.917Z,82.21
2018-12-26T03:23:00.379Z,82.08
2018-12-26T03:25:28.862Z,82.07
2018-12-26T03:27:57.314Z,82.14
2018-12-26T03:30:25.742Z,82.20
2018-12-26T03:32:54.188Z,82.35
2018-12-26T03:35:22.598Z,82.51
2018-12-26T03:37:51.116Z,82.62
2018-12-26T03:40:19.884Z,82.65
2018-12-26T03:42:48.755Z,82.49
2018-12-26T03:45:17.161Z,82.22
2018-12-26T03:47:45.983Z,82.03
2018-12-26T03:50:14.414Z,82.07
2018-12-26T03:52:43.105Z,82.14
2018-12-26T03:55:11.660Z,82.28
2018-12-26T03:57:40.111Z,82.32
2018-12-26T04:00:09.599Z,82.43
2018-12-26T04:02:38.052Z,82.36
2018-12-26T04:05:06.617Z,82.48
2018-12-26T04:07:35.042Z,82.42
2018-12-26T04:10:03.635Z,82.29
2018-12-26T04:12:32.325Z,82.32
2018-12-26T04:15:01.109Z,82.27
2018-12-26T04:17:29.766Z,82.30
2018-12-26T04:19:58.272Z,82.41
2018-12-26T04:22:26.937Z,82.42
2018-12-26T04:24:55.540Z,82.40
2018-12-26T04:27:23.950Z,82.33
2018-12-26T04:29:52.395Z,82.30
2018-12-26T04:32:20.804Z,82.28
2018-12-26T04:34:49.322Z,82.28
2018-12-26T04:37:17.744Z,82.35
2018-12-26T04:39:46.192Z,82.39
2018-12-26T04:42:14.650Z,82.52
2018-12-26T04:44:43.082Z,82.61
2018-12-26T04:47:11.516Z,82.62
2018-12-26T04:49:39.981Z,82.53
2018-12-26T04:52:08.413Z,82.52
2018-12-26T04:54:36.880Z,82.52
2018-12-26T04:57:05.298Z,82.33
2018-12-26T04:59:33.720Z,82.21
2018-12-26T05:02:02.223Z,82.14
2018-12-26T05:04:30.664Z,82.27
2018-12-26T05:06:59.116Z,82.04
2018-12-26T05:09:27.542Z,82.01
2018-12-26T05:11:56.054Z,81.85
2018-12-26T05:14:24.520Z,81.85
2018-12-26T05:16:52.980Z,81.51
2018-12-26T05:19:21.388Z,81.63
2018-12-26T05:21:49.905Z,81.56
2018-12-26T05:24:18.334Z,81.63
2018-12-26T05:26:46.781Z,81.59
2018-12-26T05:29:15.227Z,81.67
2018-12-26T05:31:43.672Z,81.79
2018-12-26T05:34:12.083Z,81.62
2018-12-26T05:36:40.518Z,81.34
2018-12-26T05:39:08.950Z,81.38
2018-12-26T05:41:37.401Z,81.44
2018-12-26T05:44:05.890Z,81.62
2018-12-26T05:46:34.312Z,81.62
2018-12-26T05:49:04.402Z,81.45
2018-12-26T05:51:34.401Z,81.33
2018-12-26T05:54:02.937Z,80.93
2018-12-26T05:56:31.360Z,80.96
2018-12-26T05:58:59.838Z,81.09
2018-12-26T06:01:28.294Z,81.15
2018-12-26T06:03:56.757Z,81.10
2018-12-26T06:06:25.192Z,81.22
2018-12-26T06:08:53.641Z,81.12
2018-12-26T06:11:22.055Z,80.93
2018-12-26T06:13:50.619Z,80.68
2018-12-26T06:16:19.064Z,80.32
2018-12-26T06:18:47.503Z,80.33
2018-12-26T06:21:15.923Z,80.32
2018-12-26T06:23:44.398Z,80.39
2018-12-26T06:26:12.819Z,80.47
2018-12-26T06:28:41.260Z,80.24
2018-12-26T06:31:09.738Z,80.33
2018-12-26T06:33:38.224Z,80.36
2018-12-26T06:36:06.734Z,80.19
2018-12-26T06:38:35.148Z,80.30
2018-12-26T06:41:03.699Z,80.37
2018-12-26T06:43:32.111Z,80.54
2018-12-26T06:46:00.572Z,80.59
2018-12-26T06:48:28.990Z,80.54
2018-12-26T06:50:57.437Z,80.57
2018-12-26T06:53:25.942Z,80.61
2018-12-26T06:55:54.399Z,80.51
2018-12-26T06:58:22.808Z,80.43
2018-12-26T07:00:51.251Z,80.39
2018-12-26T07:03:19.663Z,80.31
2018-12-26T07:05:48.185Z,80.45
2018-12-26T07:08:16.607Z,80.35
2018-12-26T07:10:45.073Z,80.34
2018-12-26T07:13:13.492Z,80.37
2018-12-26T07:15:42.029Z,80.38
2018-12-26T07:18:10.538Z,80.27
2018-12-26T07:20:38.999Z,80.28
2018-12-26T07:23:07.427Z,80.24
2018-12-26T07:25:35.880Z,80.27
2018-12-26T07:28:08.936Z,80.30
2018-12-26T07:30:34.566Z,80.33
2018-12-26T07:33:03.054Z,80.29
2018-12-26T07:35:31.495Z,80.06
2018-12-26T07:37:59.922Z,80.04
2018-12-26T07:40:28.350Z,80.08
2018-12-26T07:42:56.794Z,80.00
2018-12-26T07:45:25.310Z,79.91
2018-12-26T07:47:53.801Z,79.98
2018-12-26T07:50:22.187Z,80.10
2018-12-26T07:52:50.681Z,80.25
2018-12-26T07:55:19.050Z,80.24
2018-12-26T07:57:47.539Z,79.95
2018-12-26T08:00:15.979Z,79.94
2018-12-26T08:02:44.396Z,80.03
2018-12-26T08:05:12.859Z,79.86
2018-12-26T08:07:41.313Z,79.74
2018-12-26T08:10:09.765Z,79.65
2018-12-26T08:12:38.206Z,79.69
2018-12-26T08:15:10.747Z,79.69
2018-12-26T08:17:36.812Z,79.63
2018-12-26T08:20:07.102Z,79.45
2018-12-26T08:22:35.517Z,79.31
2018-12-26T08:25:04.148Z,79.32
2018-12-26T08:27:32.599Z,79.27
2018-12-26T08:30:01.029Z,79.36
2018-12-26T08:32:29.438Z,79.36
2018-12-26T08:34:57.913Z,79.36
2018-12-26T08:37:26.353Z,79.53
2018-12-26T08:39:54.781Z,79.63
2018-12-26T08:42:23.283Z,79.52
2018-12-26T08:44:51.786Z,79.12
2018-12-26T08:47:20.211Z,78.84
2018-12-26T08:49:48.667Z,78.93
2018-12-26T08:52:17.151Z,78.71
2018-12-26T08:54:47.252Z,78.68
2018-12-26T08:57:15.671Z,78.61
2018-12-26T08:59:44.203Z,78.34
2018-12-26T09:02:12.614Z,78.25
2018-12-26T09:04:41.046Z,78.23
2018-12-26T09:07:09.520Z,78.37
2018-12-26T09:09:38.031Z,78.33
2018-12-26T09:12:06.490Z,78.26
2018-12-26T09:14:34.949Z,78.46
2018-12-26T09:17:03.448Z,78.46
2018-12-26T09:19:31.824Z,77.95
2018-12-26T09:22:00.264Z,77.42
2018-12-26T09:24:28.698Z,77.34
2018-12-26T09:26:57.441Z,77.06
2018-12-26T09:29:25.881Z,77.19
2018-12-26T09:31:54.334Z,77.12
2018-12-26T09:34:22.775Z,77.21
2018-12-26T09:36:51.217Z,77.20
2018-12-26T09:39:19.650Z,77.24
2018-12-26T09:41:48.107Z,77.36
2018-12-26T09:44:16.529Z,77.16
2018-12-26T09:46:44.992Z,76.95
2018-12-26T09:49:13.420Z,77.18
2018-12-26T09:51:41.867Z,77.31
2018-12-26T09:54:10.294Z,77.23
2018-12-26T09:56:38.901Z,76.92
2018-12-26T09:59:07.427Z,76.97
2018-12-26T10:01:35.857Z,77.02
2018-12-26T10:04:04.311Z,76.93
2018-12-26T10:06:32.734Z,76.90
2018-12-26T10:09:01.213Z,76.99
2018-12-26T10:11:29.632Z,77.13
2018-12-26T10:13:58.055Z,76.88
2018-12-26T10:16:26.488Z,76.94
2018-12-26T10:18:54.946Z,76.73
2018-12-26T10:21:23.478Z,76.45
2018-12-26T10:23:51.942Z,76.08
2018-12-26T10:26:20.375Z,75.75
2018-12-26T10:28:49.027Z,75.85
2018-12-26T10:31:17.444Z,75.72
2018-12-26T10:33:45.972Z,75.53
2018-12-26T10:36:14.487Z,75.18
2018-12-26T10:38:42.943Z,74.18
2018-12-26T10:41:11.365Z,73.89
2018-12-26T10:43:39.782Z,73.73
2018-12-26T10:46:08.247Z,73.83
2018-12-26T10:48:36.666Z,73.46
2018-12-26T10:51:05.169Z,73.46
2018-12-26T10:53:33.605Z,73.45
2018-12-26T10:56:02.093Z,73.50
2018-12-26T10:58:30.669Z,73.23
2018-12-26T11:00:59.116Z,73.30
2018-12-26T11:03:27.615Z,73.62
2018-12-26T11:05:56.076Z,73.20
2018-12-26T11:08:24.496Z,72.64
2018-12-26T11:10:52.957Z,72.45
2018-12-26T11:13:21.414Z,72.26
2018-12-26T11:15:49.936Z,71.59
2018-12-26T11:18:18.658Z,71.30
2018-12-26T11:20:47.393Z,70.80
2018-12-26T11:23:15.831Z,70.68
2018-12-26T11:25:44.301Z,70.17
2018-12-26T11:28:12.715Z,69.52
2018-12-26T11:30:41.275Z,69.15
2018-12-26T11:33:09.738Z,69.06
2018-12-26T11:35:38.163Z,68.34
2018-12-26T11:38:06.791Z,68.05
2018-12-26T11:40:35.427Z,67.95
2018-12-26T11:43:04.035Z,66.36
2018-12-26T11:45:32.474Z,66.21
2018-12-26T11:48:00.928Z,65.36
2018-12-26T11:50:29.359Z,65.15
2018-12-26T11:52:57.811Z,64.45
2018-12-26T11:55:26.338Z,64.80
2018-12-26T11:57:54.812Z,63.74
2018-12-26T12:00:23.231Z,63.61
2018-12-26T12:02:53.435Z,63.86
2018-12-26T12:05:21.946Z,63.26
2018-12-26T12:07:50.412Z,63.26
2018-12-26T12:10:19.030Z,63.58
2018-12-26T12:12:47.624Z,63.41
2018-12-26T12:15:16.063Z,63.51
2018-12-26T12:17:44.639Z,63.61
2018-12-26T12:20:13.244Z,62.78
2018-12-26T12:22:44.772Z,61.75
2018-12-26T12:25:13.195Z,61.80
2018-12-26T12:27:41.758Z,61.28
2018-12-26T12:30:10.252Z,60.13
2018-12-26T12:32:38.712Z,59.19
2018-12-26T12:35:07.543Z,59.19
2018-12-26T12:37:36.062Z,58.43
2018-12-26T12:40:07.170Z,58.43
2018-12-26T12:42:35.739Z,57.94
2018-12-26T12:45:05.027Z,57.20
2018-12-26T12:47:33.523Z,57.53
2018-12-26T12:50:02.116Z,56.91
2018-12-26T12:52:30.596Z,57.00
2018-12-26T12:54:59.186Z,56.86
2018-12-26T12:57:27.702Z,56.41
2018-12-26T12:59:56.306Z,57.47
2018-12-26T13:02:24.835Z,57.47
2018-12-26T13:04:53.352Z,58.28
2018-12-26T13:07:21.867Z,58.71
2018-12-26T13:09:50.406Z,58.71
2018-12-26T13:12:18.882Z,59.24
2018-12-26T13:14:47.355Z,58.12
2018-12-26T13:17:15.785Z,57.77
2018-12-26T13:19:44.327Z,58.61
2018-12-26T13:22:12.741Z,58.61
2018-12-26T13:24:41.197Z,59.17
2018-12-26T13:27:09.612Z,58.84
2018-12-26T13:29:38.091Z,59.20
2018-12-26T13:32:06.735Z,59.42
2018-12-26T13:34:35.189Z,59.69
2018-12-26T13:37:03.705Z,59.44
2018-12-26T13:39:32.315Z,59.61
2018-12-26T13:42:00.840Z,59.75
2018-12-26T13:44:29.304Z,60.34
2018-12-26T13:46:57.947Z,60.99
2018-12-26T13:49:26.389Z,61.11
2018-12-26T13:51:54.877Z,61.23
2018-12-26T13:54:24.377Z,61.50
2018-12-26T13:56:52.835Z,61.65
2018-12-26T13:59:21.265Z,61.75
2018-12-26T14:01:49.722Z,62.18
2018-12-26T14:04:18.131Z,62.46
2018-12-26T14:06:46.592Z,62.99
2018-12-26T14:09:15.086Z,63.50
2018-12-26T14:11:43.552Z,63.82
2018-12-26T14:14:13.526Z,64.09
2018-12-26T14:16:41.980Z,64.13
2018-12-26T14:19:10.405Z,64.34
2018-12-26T14:21:38.845Z,64.55
2018-12-26T14:24:07.300Z,65.15
2018-12-26T14:26:35.775Z,65.19
2018-12-26T14:29:04.329Z,65.37
2018-12-26T14:31:32.848Z,65.79
2018-12-26T14:34:01.325Z,65.82
2018-12-26T14:36:29.758Z,65.93
2018-12-26T14:38:58.196Z,66.12
2018-12-26T14:41:26.627Z,66.10
2018-12-26T14:43:55.100Z,66.36
2018-12-26T14:46:23.531Z,66.45
2018-12-26T14:48:52.166Z,66.60
2018-12-26T14:51:26.324Z,66.68
2018-12-26T14:53:51.240Z,66.82
2018-12-26T14:56:19.824Z,66.81
2018-12-26T14:58:48.308Z,66.95
2018-12-26T15:01:16.736Z,67.15
2018-12-26T15:03:45.232Z,67.33
2018-12-26T15:06:13.653Z,67.38
2018-12-26T15:08:42.101Z,67.31
2018-12-26T15:11:10.577Z,67.43
2018-12-26T15:13:39.009Z,67.50
2018-12-26T15:16:07.527Z,67.51
2018-12-26T15:18:35.932Z,67.54
2018-12-26T15:21:04.427Z,67.61
2018-12-26T15:23:32.836Z,67.71
2018-12-26T15:26:01.290Z,67.86
2018-12-26T15:28:29.729Z,67.97
2018-12-26T15:30:58.162Z,68.05
2018-12-26T15:33:26.671Z,68.12
2018-12-26T15:35:55.188Z,68.11
2018-12-26T15:38:23.623Z,68.21
2018-12-26T15:40:52.068Z,68.25
2018-12-26T15:43:20.506Z,68.35
2018-12-26T15:45:48.964Z,68.16
2018-12-26T15:48:17.406Z,68.14
2018-12-26T15:50:45.837Z,68.20
2018-12-26T15:53:14.339Z,68.16
2018-12-26T15:55:42.763Z,68.12
2018-12-26T15:58:11.674Z,68.29
2018-12-26T16:00:40.162Z,68.30
2018-12-26T16:03:08.616Z,68.33
2018-12-26T16:05:37.051Z,68.52
2018-12-26T16:08:05.568Z,68.59
2018-12-26T16:10:34.064Z,68.67
2018-12-26T16:13:02.517Z,68.78
2018-12-26T16:15:30.939Z,68.80
2018-12-26T16:17:59.406Z,68.83
2018-12-26T16:20:27.835Z,68.90
2018-12-26T16:22:56.310Z,68.98
2018-12-26T16:25:24.743Z,69.03
2018-12-26T16:27:53.188Z,68.98
2018-12-26T16:30:21.620Z,68.99
2018-12-26T16:32:50.092Z,69.09
2018-12-26T16:35:18.546Z,69.21
2018-12-26T16:37:46.969Z,69.18
2018-12-26T16:40:15.497Z,69.25
2018-12-26T16:42:43.935Z,69.32
2018-12-26T16:45:12.365Z,69.32
2018-12-26T16:47:40.830Z,69.31
2018-12-26T16:50:09.381Z,69.37
2018-12-26T16:52:37.787Z,69.49
2018-12-26T16:55:07.213Z,69.67
2018-12-26T16:57:35.637Z,69.66
2018-12-26T17:00:06.027Z,69.70
2018-12-26T17:02:34.439Z,69.71
2018-12-26T17:05:03.008Z,69.60
2018-12-26T17:07:31.599Z,69.62
2018-12-26T17:10:00.155Z,69.50
2018-12-26T17:12:28.613Z,69.38
2018-12-26T17:14:57.123Z,69.22
2018-12-26T17:17:28.100Z,69.29
2018-12-26T17:19:56.577Z,69.33
2018-12-26T17:22:24.997Z,69.31
2018-12-26T17:24:53.453Z,69.43
2018-12-26T17:27:21.909Z,69.61
2018-12-26T17:29:50.364Z,69.75
2018-12-26T17:32:18.809Z,69.83
2018-12-26T17:34:47.282Z,69.87
2018-12-26T17:37:15.798Z,69.92
2018-12-26T17:39:44.320Z,69.95
2018-12-26T17:42:12.851Z,70.05
2018-12-26T17:44:41.301Z,70.15
2018-12-26T17:47:09.793Z,70.14
2018-12-26T17:49:38.288Z,70.15
2018-12-26T17:52:06.753Z,70.29
2018-12-26T17:54:38.537Z,70.26
2018-12-26T17:57:07.132Z,70.38
2018-12-26T17:59:41.271Z,70.45
2018-12-26T18:02:15.508Z,70.44
2018-12-26T18:04:43.938Z,70.54
2018-12-26T18:07:12.459Z,70.62
2018-12-26T18:09:40.886Z,70.62
2018-12-26T18:12:12.087Z,70.67
2018-12-26T18:14:39.671Z,70.63
2018-12-26T18:17:08.188Z,70.77
2018-12-26T18:19:36.786Z,70.78
2018-12-26T18:22:05.286Z,70.80
2018-12-26T18:24:33.706Z,70.88
2018-12-26T18:27:02.196Z,70.86
2018-12-26T18:29:30.693Z,70.93
2018-12-26T18:31:59.153Z,71.05
2018-12-26T18:34:27.623Z,71.09
2018-12-26T18:36:56.194Z,71.03
2018-12-26T18:39:24.740Z,71.17
2018-12-26T18:41:53.313Z,71.09
2018-12-26T18:44:21.792Z,71.07
2018-12-26T18:46:50.306Z,71.24
2018-12-26T18:49:18.763Z,71.36
2018-12-26T18:51:47.256Z,71.20
2018-12-26T18:54:15.713Z,71.18
2018-12-26T18:56:44.254Z,71.25
2018-12-26T18:59:12.719Z,71.34
2018-12-26T19:01:41.692Z,71.37
2018-12-26T19:04:10.234Z,71.32
2018-12-26T19:06:38.659Z,71.39
2018-12-26T19:09:07.313Z,71.37
2018-12-26T19:11:35.840Z,71.42
2018-12-26T19:14:04.567Z,71.47
2018-12-26T19:16:33.082Z,71.43
2018-12-26T19:19:01.537Z,71.53
2018-12-26T19:21:29.990Z,71.53
2018-12-26T19:23:58.963Z,71.56
2018-12-26T19:26:27.434Z,71.55
2018-12-26T19:28:55.933Z,71.68
2018-12-26T19:31:24.474Z,71.73
2018-12-26T19:33:52.996Z,71.73
2018-12-26T19:36:21.446Z,71.84
2018-12-26T19:38:49.868Z,72.00
2018-12-26T19:41:18.341Z,72.05
2018-12-26T19:43:46.789Z,72.04
2018-12-26T19:46:15.375Z,72.05
2018-12-26T19:48:43.808Z,72.08
2018-12-26T19:51:12.375Z,72.05
2018-12-26T19:53:40.820Z,72.12
2018-12-26T19:56:09.421Z,72.21
2018-12-26T19:58:38.006Z,72.01
2018-12-26T20:01:06.515Z,71.90
2018-12-26T20:03:35.135Z,72.01
2018-12-26T20:06:03.620Z,72.03
2018-12-26T20:08:32.057Z,71.98
2018-12-26T20:11:00.495Z,72.01
2018-12-26T20:13:28.955Z,72.00
2018-12-26T20:15:57.397Z,71.99
2018-12-26T20:18:25.860Z,72.14
2018-12-26T20:20:54.286Z,72.18
2018-12-26T20:23:22.752Z,72.27
2018-12-26T20:25:51.178Z,72.20
2018-12-26T20:28:19.805Z,72.15
2018-12-26T20:30:48.208Z,72.28
2018-12-26T20:33:16.765Z,72.36
2018-12-26T20:35:45.191Z,72.31
2018-12-26T20:38:13.660Z,72.33
2018-12-26T20:40:42.079Z,72.37
2018-12-26T20:43:10.593Z,72.29
2018-12-26T20:45:39.060Z,72.35
2018-12-26T20:48:07.552Z,72.35
2018-12-26T20:50:36.008Z,72.23
2018-12-26T20:53:04.456Z,72.27
2018-12-26T20:55:33.065Z,72.36
2018-12-26T20:58:01.503Z,72.42
2018-12-26T21:00:30.030Z,72.45
2018-12-26T21:02:58.487Z,72.44
2018-12-26T21:05:26.974Z,72.50
2018-12-26T21:07:55.383Z,72.40
2018-12-26T21:10:23.905Z,72.37
2018-12-26T21:12:52.407Z,72.34
2018-12-26T21:15:22.816Z,72.37
2018-12-26T21:17:50.992Z,72.42
2018-12-26T21:20:19.489Z,72.44
2018-12-26T21:22:48.053Z,72.48
2018-12-26T21:25:16.519Z,72.51
2018-12-26T21:27:45.018Z,72.46
2018-12-26T21:30:14.501Z,72.35
2018-12-26T21:32:43.005Z,72.38
2018-12-26T21:35:11.559Z,72.44
2018-12-26T21:37:40.091Z,72.47
2018-12-26T21:40:09.241Z,72.55
2018-12-26T21:42:37.728Z,72.53
2018-12-26T21:45:08.498Z,72.52
2018-12-26T21:47:37.052Z,72.62
2018-12-26T21:50:08.726Z,72.74
2018-12-26T21:52:37.271Z,72.85
2018-12-26T21:55:05.790Z,72.93
2018-12-26T21:57:34.259Z,72.91
2018-12-26T22:00:02.869Z,73.02
2018-12-26T22:02:31.370Z,72.98
2018-12-26T22:04:59.821Z,72.96
2018-12-26T22:07:28.253Z,72.93
2018-12-26T22:09:56.757Z,72.86
2018-12-26T22:12:25.211Z,72.85
2018-12-26T22:14:53.736Z,72.87
2018-12-26T22:17:22.162Z,72.95
2018-12-26T22:19:50.620Z,73.08
2018-12-26T22:22:20.691Z,73.06
2018-12-26T22:24:49.149Z,73.12
2018-12-26T22:27:17.572Z,73.09
2018-12-26T22:29:46.019Z,73.17
2018-12-26T22:32:14.518Z,73.20
2018-12-26T22:34:43.001Z,73.36
2018-12-26T22:37:11.466Z,73.42
2018-12-26T22:39:39.952Z,73.31
2018-12-26T22:42:08.359Z,73.17
2018-12-26T22:44:36.787Z,73.33
2018-12-26T22:47:05.274Z,73.38
2018-12-26T22:49:33.725Z,73.31
2018-12-26T22:52:02.167Z,73.29
2018-12-26T22:54:30.714Z,73.16
2018-12-26T22:56:59.133Z,73.31
2018-12-26T22:59:27.594Z,73.44
2018-12-26T23:01:56.041Z,73.53
2018-12-26T23:04:24.467Z,73.54
2018-12-26T23:06:52.926Z,73.36
2018-12-26T23:09:21.623Z,73.23
2018-12-26T23:11:50.097Z,73.35
2018-12-26T23:14:18.530Z,73.17
2018-12-26T23:16:46.992Z,73.24
2018-12-26T23:19:15.681Z,73.13
2018-12-26T23:21:44.127Z,73.05
2018-12-26T23:24:12.537Z,73.01
2018-12-26T23:26:40.984Z,73.03
2018-12-26T23:29:09.428Z,72.86
2018-12-26T23:31:37.977Z,72.73
2018-12-26T23:34:06.402Z,72.61
2018-12-26T23:36:34.855Z,72.70
2018-12-26T23:39:04.242Z,72.79
2018-12-26T23:41:32.698Z,72.80
2018-12-26T23:44:01.161Z,72.72
2018-12-26T23:46:29.590Z,72.99
2018-12-26T23:48:58.040Z,73.05
2018-12-26T23:51:26.500Z,73.29
2018-12-26T23:53:54.960Z,73.36
2018-12-26T23:56:23.457Z,73.39
2018-12-26T23:58:51.948Z,73.60
